createdAt,value
2018-04-25T00:01:59.308Z,14.70
2018-04-25T00:04:26.929Z,14.70
2018-04-25T00:06:54.641Z,14.70
2018-04-25T00:09:22.460Z,14.70
2018-04-25T00:11:50.055Z,14.60
2018-04-25T00:14:18.372Z,14.50
2018-04-25T00:16:45.932Z,14.50
2018-04-25T00:19:13.581Z,14.50
2018-04-25T00:21:41.975Z,14.40
2018-04-25T00:24:10.438Z,14.40
2018-04-25T00:26:38.808Z,14.40
2018-04-25T00:29:06.500Z,14.30
2018-04-25T00:31:34.252Z,14.40
2018-04-25T00:34:01.837Z,11.50
2018-04-25T00:36:29.396Z,14.30
2018-04-25T00:38:56.981Z,14.40
2018-04-25T00:41:24.586Z,14.50
2018-04-25T00:43:52.238Z,14.60
2018-04-25T00:46:20.557Z,14.60
2018-04-25T00:48:48.141Z,14.60
2018-04-25T00:51:17.200Z,14.10
2018-04-25T00:53:44.799Z,14.10
2018-04-25T00:56:12.506Z,14.10
2018-04-25T00:58:40.098Z,13.80
2018-04-25T01:01:07.653Z,13.60
2018-04-25T01:03:35.241Z,13.50
2018-04-25T01:06:02.853Z,13.40
2018-04-25T01:08:30.409Z,13.50
2018-04-25T01:10:57.994Z,13.50
2018-04-25T01:13:25.540Z,13.30
2018-04-25T01:15:53.320Z,13.30
2018-04-25T01:18:20.871Z,13.20
2018-04-25T01:20:48.480Z,13.20
2018-04-25T01:23:19.705Z,13.30
2018-04-25T01:25:48.041Z,13.60
2018-04-25T01:28:23.716Z,13.70
2018-04-25T01:30:54.172Z,14.10
2018-04-25T01:33:23.415Z,14.40
2018-04-25T01:36:14.533Z,14.60
2018-04-25T01:38:51.041Z,14.60
2018-04-25T01:41:19.398Z,14.60
2018-04-25T01:43:49.530Z,14.60
2018-04-25T01:46:25.825Z,14.50
2018-04-25T01:51:59.870Z,14.20
2018-04-25T01:54:39.445Z,14.20
2018-04-25T01:57:18.961Z,14.30
2018-04-25T01:59:59.086Z,14.40
2018-04-25T02:02:26.148Z,14.40
2018-04-25T02:04:53.706Z,14.50
2018-04-25T02:07:21.261Z,14.50
2018-04-25T02:09:48.845Z,14.50
2018-04-25T02:12:16.402Z,14.40
2018-04-25T02:14:43.994Z,14.30
2018-04-25T02:17:11.606Z,14.40
2018-04-25T02:19:39.182Z,14.30
2018-04-25T02:22:06.750Z,14.30
2018-04-25T02:24:34.321Z,14.30
2018-04-25T02:27:02.650Z,14.10
2018-04-25T02:29:30.337Z,14.10
2018-04-25T02:31:57.937Z,14.10
2018-04-25T02:34:25.533Z,14.00
2018-04-25T02:36:53.270Z,14.00
2018-04-25T02:39:20.847Z,13.90
2018-04-25T02:41:48.414Z,13.90
2018-04-25T02:44:16.107Z,13.90
2018-04-25T02:46:43.753Z,14.10
2018-04-25T02:49:11.314Z,14.20
2018-04-25T02:51:38.933Z,14.20
2018-04-25T02:54:06.522Z,14.00
2018-04-25T02:56:34.210Z,11.60
2018-04-25T02:59:01.930Z,13.80
2018-04-25T03:01:29.501Z,13.70
2018-04-25T03:03:57.193Z,13.70
2018-04-25T03:06:25.557Z,13.80
2018-04-25T03:08:53.178Z,13.80
2018-04-25T03:11:20.773Z,13.80
2018-04-25T03:13:48.344Z,13.70
2018-04-25T03:16:15.896Z,13.60
2018-04-25T03:18:43.489Z,13.60
2018-04-25T03:21:11.167Z,13.50
2018-04-25T03:23:38.937Z,13.60
2018-04-25T03:26:06.636Z,13.60
2018-04-25T03:28:34.450Z,13.60
2018-04-25T03:31:02.112Z,13.70
2018-04-25T03:33:29.771Z,14.00
2018-04-25T03:35:57.457Z,14.00
2018-04-25T03:38:25.058Z,13.90
2018-04-25T03:40:53.386Z,14.50
2018-04-25T03:43:20.985Z,14.40
2018-04-25T03:45:48.598Z,14.40
2018-04-25T03:48:16.187Z,14.30
2018-04-25T03:50:43.781Z,14.50
2018-04-25T03:53:12.185Z,14.60
2018-04-25T03:55:39.773Z,14.60
2018-04-25T03:58:07.345Z,14.50
2018-04-25T04:00:34.934Z,14.40
2018-04-25T04:03:03.254Z,14.60
2018-04-25T04:05:30.833Z,14.60
2018-04-25T04:07:58.454Z,14.70
2018-04-25T04:10:26.061Z,14.80
2018-04-25T04:12:53.704Z,14.80
2018-04-25T04:15:21.977Z,14.50
2018-04-25T04:17:49.603Z,14.50
2018-04-25T04:20:17.248Z,14.20
2018-04-25T04:22:44.829Z,13.90
2018-04-25T04:25:12.506Z,13.80
2018-04-25T04:27:40.080Z,13.90
2018-04-25T04:30:07.680Z,14.50
2018-04-25T04:32:36.014Z,14.30
2018-04-25T04:35:03.567Z,14.30
2018-04-25T04:37:31.254Z,14.30
2018-04-25T04:39:58.905Z,14.50
2018-04-25T04:42:26.485Z,14.70
2018-04-25T04:44:54.813Z,14.60
2018-04-25T04:47:22.471Z,14.60
2018-04-25T04:49:50.138Z,14.60
2018-04-25T04:52:17.742Z,14.50
2018-04-25T04:54:46.072Z,14.70
2018-04-25T04:57:13.708Z,14.70
2018-04-25T04:59:41.285Z,14.70
2018-04-25T05:02:08.858Z,14.80
2018-04-25T05:04:36.435Z,14.80
2018-04-25T05:07:04.143Z,14.90
2018-04-25T05:09:31.773Z,14.90
2018-04-25T05:12:00.294Z,14.80
2018-04-25T05:14:27.894Z,14.70
2018-04-25T05:16:56.225Z,14.70
2018-04-25T05:19:23.809Z,14.60
2018-04-25T05:21:51.441Z,14.50
2018-04-25T05:24:19.080Z,14.30
2018-04-25T05:26:46.661Z,14.20
2018-04-25T05:29:14.460Z,14.10
2018-04-25T05:31:42.021Z,14.00
2018-04-25T05:34:09.639Z,14.20
2018-04-25T05:36:37.337Z,14.20
2018-04-25T05:39:05.016Z,14.20
2018-04-25T05:41:32.582Z,14.30
2018-04-25T05:44:00.151Z,14.70
2018-04-25T05:46:28.661Z,14.70
2018-04-25T05:48:56.209Z,14.60
2018-04-25T05:51:23.804Z,14.80
2018-04-25T05:53:51.757Z,15.00
2018-04-25T05:56:19.353Z,15.30
2018-04-25T05:58:47.705Z,15.70
2018-04-25T06:01:15.407Z,15.70
2018-04-25T06:03:43.741Z,16.00
2018-04-25T06:06:11.378Z,16.00
2018-04-25T06:08:39.033Z,16.10
2018-04-25T06:11:07.068Z,16.40
2018-04-25T06:13:34.632Z,17.20
2018-04-25T06:16:02.972Z,16.50
2018-04-25T06:18:30.544Z,16.50
2018-04-25T06:20:58.116Z,16.60
2018-04-25T06:23:25.702Z,16.80
2018-04-25T06:25:53.264Z,16.80
2018-04-25T06:28:20.999Z,17.10
2018-04-25T06:30:48.593Z,17.10
2018-04-25T06:33:16.181Z,17.20
2018-04-25T06:35:43.742Z,17.40
2018-04-25T06:38:11.331Z,17.40
2018-04-25T06:40:38.993Z,17.40
2018-04-25T06:43:06.604Z,17.50
2018-04-25T06:45:34.164Z,17.60
2018-04-25T06:48:01.717Z,17.60
2018-04-25T06:50:29.393Z,17.70
2018-04-25T06:52:56.968Z,17.90
2018-04-25T06:55:24.541Z,17.80
2018-04-25T06:57:52.106Z,17.80
2018-04-25T07:00:19.694Z,17.90
2018-04-25T07:02:47.262Z,18.00
2018-04-25T07:05:15.085Z,18.10
2018-04-25T07:07:42.645Z,18.20
2018-04-25T07:10:10.233Z,18.40
2018-04-25T07:12:37.784Z,18.40
2018-04-25T07:15:06.156Z,18.80
2018-04-25T07:17:34.489Z,18.80
2018-04-25T07:20:02.045Z,18.80
2018-04-25T07:22:29.651Z,19.10
2018-04-25T07:24:57.981Z,20.00
2018-04-25T07:27:25.573Z,20.00
2018-04-25T07:29:53.890Z,20.40
2018-04-25T07:32:21.481Z,20.40
2018-04-25T07:34:49.169Z,21.00
2018-04-25T07:37:17.612Z,21.90
2018-04-25T07:39:45.274Z,21.80
2018-04-25T07:42:12.865Z,22.40
2018-04-25T07:44:40.585Z,21.40
2018-04-25T07:47:08.165Z,21.40
2018-04-25T07:49:35.789Z,21.10
2018-04-25T07:52:03.565Z,21.00
2018-04-25T07:54:31.153Z,21.30
2018-04-25T07:56:58.790Z,21.30
2018-04-25T07:59:26.474Z,22.10
2018-04-25T08:01:54.168Z,22.70
2018-04-25T08:04:22.526Z,24.00
2018-04-25T08:06:50.120Z,23.90
2018-04-25T08:09:18.442Z,23.80
2018-04-25T08:11:46.022Z,23.70
2018-04-25T08:14:26.229Z,22.70
2018-04-25T08:17:05.633Z,22.70
2018-04-25T08:19:45.297Z,21.80
2018-04-25T08:22:12.869Z,21.30
2018-04-25T08:24:40.429Z,20.70
2018-04-25T08:27:08.037Z,20.70
2018-04-25T08:29:36.399Z,21.80
2018-04-25T08:32:03.982Z,21.80
2018-04-25T08:34:31.571Z,21.40
2018-04-25T08:36:59.152Z,21.70
2018-04-25T08:39:26.744Z,22.70
2018-04-25T08:41:55.381Z,21.50
2018-04-25T08:44:22.946Z,21.40
2018-04-25T08:46:50.536Z,21.30
2018-04-25T08:51:44.239Z,21.30
2018-04-25T08:54:12.757Z,22.00
2018-04-25T08:56:40.354Z,22.00
2018-04-25T08:59:07.930Z,22.90
2018-04-25T09:01:36.281Z,22.60
2018-04-25T09:04:04.630Z,22.50
2018-04-25T09:06:32.241Z,22.40
2018-04-25T09:09:00.588Z,21.70
2018-04-25T09:11:28.329Z,21.80
2018-04-25T09:13:56.100Z,21.70
2018-04-25T09:16:23.660Z,21.70
2018-04-25T09:18:51.258Z,21.70
2018-04-25T09:21:19.604Z,21.90
2018-04-25T09:23:47.194Z,21.80
2018-04-25T09:26:15.521Z,23.40
2018-04-25T09:28:43.313Z,23.30
2018-04-25T09:31:11.002Z,24.20
2018-04-25T09:33:39.361Z,23.80
2018-04-25T09:36:07.067Z,23.80
2018-04-25T09:38:34.836Z,25.00
2018-04-25T09:41:02.393Z,25.20
2018-04-25T09:43:30.013Z,25.00
2018-04-25T09:45:58.427Z,24.60
2018-04-25T09:48:26.734Z,25.20
2018-04-25T09:50:54.443Z,25.20
2018-04-25T09:53:22.781Z,23.70
2018-04-25T09:55:50.379Z,23.60
2018-04-25T09:58:18.755Z,22.30
2018-04-25T10:00:52.807Z,21.80
2018-04-25T10:03:23.125Z,21.50
2018-04-25T10:05:50.832Z,21.50
2018-04-25T10:08:18.476Z,21.80
2018-04-25T10:10:46.099Z,22.00
2018-04-25T10:13:13.657Z,21.90
2018-04-25T10:15:41.219Z,24.00
2018-04-25T10:18:08.869Z,23.80
2018-04-25T10:20:36.432Z,24.30
2018-04-25T10:23:04.030Z,24.20
2018-04-25T10:25:31.691Z,24.30
2018-04-25T10:27:59.268Z,24.50
2018-04-25T10:30:27.609Z,24.70
2018-04-25T10:32:55.201Z,24.70
2018-04-25T10:35:23.541Z,25.50
2018-04-25T10:37:51.130Z,25.50
2018-04-25T10:40:18.894Z,25.20
2018-04-25T10:42:46.449Z,24.70
2018-04-25T10:45:14.213Z,23.40
2018-04-25T10:47:41.774Z,23.20
2018-04-25T10:50:09.350Z,22.90
2018-04-25T10:52:37.714Z,23.20
2018-04-25T10:55:06.078Z,22.80
2018-04-25T10:57:33.709Z,22.80
2018-04-25T11:00:01.285Z,22.60
2018-04-25T11:02:28.904Z,22.40
2018-04-25T11:04:56.567Z,22.20
2018-04-25T11:07:24.353Z,22.60
2018-04-25T11:09:52.706Z,22.50
2018-04-25T11:12:20.269Z,22.50
2018-04-25T11:14:47.961Z,22.10
2018-04-25T11:17:15.535Z,22.30
2018-04-25T11:19:43.205Z,22.20
2018-04-25T11:22:10.817Z,22.00
2018-04-25T11:24:38.393Z,21.90
2018-04-25T11:27:06.032Z,21.50
2018-04-25T11:29:33.588Z,21.40
2018-04-25T11:32:01.426Z,21.00
2018-04-25T11:34:29.734Z,21.30
2018-04-25T11:36:57.334Z,21.30
2018-04-25T11:39:24.937Z,22.00
2018-04-25T11:41:52.530Z,22.70
2018-04-25T11:44:20.151Z,22.20
2018-04-25T11:46:47.729Z,22.10
2018-04-25T11:49:15.294Z,22.50
2018-04-25T11:51:42.989Z,22.20
2018-04-25T11:54:11.332Z,21.40
2018-04-25T11:56:38.907Z,21.30
2018-04-25T11:59:06.473Z,21.50
2018-04-25T12:01:35.607Z,21.50
2018-04-25T12:04:03.162Z,21.50
2018-04-25T12:06:31.503Z,21.30
2018-04-25T12:08:59.871Z,22.10
2018-04-25T12:11:27.434Z,22.20
2018-04-25T12:13:55.277Z,22.50
2018-04-25T12:16:22.858Z,22.90
2018-04-25T12:18:50.575Z,22.60
2018-04-25T12:21:18.908Z,21.70
2018-04-25T12:23:46.591Z,21.80
2018-04-25T12:26:15.014Z,21.10
2018-04-25T12:28:42.717Z,21.00
2018-04-25T12:31:11.060Z,20.80
2018-04-25T12:33:38.677Z,20.80
2018-04-25T12:36:06.278Z,21.50
2018-04-25T12:38:33.853Z,21.10
2018-04-25T12:41:01.615Z,20.70
2018-04-25T12:43:29.313Z,21.20
2018-04-25T12:45:57.663Z,22.10
2018-04-25T12:48:25.217Z,22.10
2018-04-25T12:50:53.038Z,22.20
2018-04-25T12:53:20.605Z,22.40
2018-04-25T12:55:48.258Z,22.60
2018-04-25T12:58:15.833Z,22.50
2018-04-25T13:00:43.598Z,22.20
2018-04-25T13:03:11.399Z,21.60
2018-04-25T13:05:41.118Z,22.00
2018-04-25T13:08:09.633Z,22.50
2018-04-25T13:10:37.614Z,22.50
2018-04-25T13:13:05.677Z,22.30
2018-04-25T13:15:34.591Z,21.90
2018-04-25T13:18:02.158Z,21.50
2018-04-25T13:20:29.814Z,21.80
2018-04-25T13:22:57.410Z,21.90
2018-04-25T13:25:25.757Z,20.90
2018-04-25T13:27:53.401Z,20.90
2018-04-25T13:30:21.041Z,21.00
2018-04-25T13:32:48.629Z,20.60
2018-04-25T13:35:16.191Z,20.60
2018-04-25T13:37:43.884Z,20.80
2018-04-25T13:40:11.601Z,21.30
2018-04-25T13:42:39.190Z,20.50
2018-04-25T13:45:07.526Z,20.50
2018-04-25T13:47:35.194Z,20.40
2018-04-25T13:50:02.820Z,20.80
2018-04-25T13:52:30.508Z,20.50
2018-04-25T13:54:58.101Z,20.40
2018-04-25T13:57:25.905Z,20.50
2018-04-25T13:59:53.477Z,20.20
2018-04-25T14:02:21.036Z,20.50
2018-04-25T14:04:48.893Z,19.90
2018-04-25T14:07:16.466Z,20.00
2018-04-25T14:09:44.071Z,20.00
2018-04-25T14:12:12.397Z,20.20
2018-04-25T14:14:40.163Z,20.20
2018-04-25T14:17:07.740Z,20.40
2018-04-25T14:19:35.434Z,20.40
2018-04-25T14:22:03.848Z,20.50
2018-04-25T14:24:31.442Z,20.50
2018-04-25T14:26:59.009Z,20.60
2018-04-25T14:29:26.571Z,20.00
2018-04-25T14:31:54.186Z,20.00
2018-04-25T14:34:21.864Z,20.20
2018-04-25T14:36:49.469Z,20.20
2018-04-25T14:39:17.827Z,20.20
2018-04-25T14:41:46.167Z,20.20
2018-04-25T14:44:13.745Z,20.20
2018-04-25T14:46:41.389Z,19.90
2018-04-25T14:49:08.963Z,19.90
2018-04-25T14:51:36.595Z,19.70
2018-04-25T14:54:04.349Z,19.80
2018-04-25T14:56:31.921Z,19.90
2018-04-25T14:58:59.522Z,20.30
2018-04-25T15:01:27.214Z,20.40
2018-04-25T15:03:54.716Z,19.90
2018-04-25T15:06:22.333Z,20.50
2018-04-25T15:08:50.013Z,21.00
2018-04-25T15:11:17.694Z,21.10
2018-04-25T15:13:45.318Z,20.40
2018-04-25T15:16:13.049Z,20.50
2018-04-25T15:18:40.638Z,20.30
2018-04-25T15:21:08.238Z,20.70
2018-04-25T15:23:35.861Z,20.70
2018-04-25T15:26:03.452Z,20.30
2018-04-25T15:28:31.038Z,19.70
2018-04-25T15:30:59.475Z,19.50
2018-04-25T15:33:27.102Z,19.50
2018-04-25T15:35:54.718Z,19.50
2018-04-25T15:38:22.424Z,19.70
2018-04-25T15:40:50.805Z,20.00
2018-04-25T15:43:18.378Z,20.00
2018-04-25T15:45:45.970Z,19.80
2018-04-25T15:48:13.572Z,19.10
2018-04-25T15:50:42.260Z,19.20
2018-04-25T15:53:10.704Z,19.20
2018-04-25T15:55:38.275Z,19.20
2018-04-25T15:58:05.926Z,18.90
2018-04-25T16:00:33.510Z,18.90
2018-04-25T16:03:01.890Z,18.90
2018-04-25T16:05:30.390Z,19.70
2018-04-25T16:07:58.112Z,19.70
2018-04-25T16:10:25.676Z,19.80
2018-04-25T16:12:53.254Z,20.00
2018-04-25T16:15:21.815Z,19.10
2018-04-25T16:17:49.435Z,19.10
2018-04-25T16:20:17.036Z,18.90
2018-04-25T16:22:44.658Z,18.80
2018-04-25T16:25:12.304Z,18.90
2018-04-25T16:27:39.910Z,18.60
2018-04-25T16:30:08.445Z,18.50
2018-04-25T16:32:36.061Z,18.60
2018-04-25T16:35:04.518Z,18.70
2018-04-25T16:37:32.214Z,18.70
2018-04-25T16:39:59.829Z,18.60
2018-04-25T16:42:27.389Z,18.50
2018-04-25T16:44:55.015Z,18.40
2018-04-25T16:47:22.657Z,18.40
2018-04-25T16:49:50.289Z,18.50
2018-04-25T16:52:17.856Z,18.50
2018-04-25T16:54:46.205Z,18.40
2018-04-25T16:57:13.864Z,18.30
2018-04-25T16:59:41.387Z,18.20
2018-04-25T17:02:08.985Z,18.20
2018-04-25T17:04:36.574Z,18.10
2018-04-25T17:07:04.956Z,17.90
2018-04-25T17:09:33.358Z,17.90
2018-04-25T17:12:00.907Z,17.90
2018-04-25T17:14:28.485Z,17.80
2018-04-25T17:16:56.109Z,17.80
2018-04-25T17:19:24.553Z,17.40
2018-04-25T17:21:52.163Z,17.40
2018-04-25T17:24:19.750Z,17.50
2018-04-25T17:26:47.325Z,17.50
2018-04-25T17:29:14.934Z,17.50
2018-04-25T17:31:42.662Z,17.60
2018-04-25T17:34:10.249Z,17.80
2018-04-25T17:36:38.726Z,17.70
2018-04-25T17:39:06.301Z,17.70
2018-04-25T17:41:33.889Z,17.60
2018-04-25T17:44:01.483Z,17.70
2018-04-25T17:46:29.043Z,17.40
2018-04-25T17:48:57.410Z,17.20
2018-04-25T17:51:25.153Z,17.20
2018-04-25T17:53:52.757Z,17.20
2018-04-25T17:56:21.090Z,17.20
2018-04-25T17:58:48.882Z,17.20
2018-04-25T18:01:16.457Z,17.20
2018-04-25T18:03:44.826Z,17.10
2018-04-25T18:06:13.242Z,17.10
2018-04-25T18:08:40.811Z,17.10
2018-04-25T18:11:08.394Z,17.00
2018-04-25T18:13:36.138Z,17.00
2018-04-25T18:16:03.720Z,16.90
2018-04-25T18:18:31.299Z,16.80
2018-04-25T18:20:59.660Z,16.90
2018-04-25T18:23:27.346Z,16.90
2018-04-25T18:25:55.729Z,16.70
2018-04-25T18:28:23.349Z,16.70
2018-04-25T18:30:50.953Z,16.70
2018-04-25T18:33:18.525Z,16.70
2018-04-25T18:35:46.348Z,16.60
2018-04-25T18:38:13.920Z,16.50
2018-04-25T18:40:42.278Z,16.50
2018-04-25T18:43:09.846Z,16.40
2018-04-25T18:45:37.450Z,16.40
2018-04-25T18:48:05.009Z,16.40
2018-04-25T18:50:32.593Z,16.50
2018-04-25T18:53:00.158Z,16.30
2018-04-25T18:55:27.779Z,16.40
2018-04-25T18:57:55.376Z,16.40
2018-04-25T19:00:23.054Z,16.40
2018-04-25T19:02:50.645Z,16.20
2018-04-25T19:05:18.239Z,16.30
2018-04-25T19:07:45.844Z,16.20
2018-04-25T19:10:14.186Z,16.00
2018-04-25T19:12:41.799Z,16.00
2018-04-25T19:15:09.358Z,16.20
2018-04-25T19:17:37.068Z,16.00
2018-04-25T19:20:04.640Z,15.80
2018-04-25T19:22:32.252Z,15.90
2018-04-25T19:24:59.858Z,15.80
2018-04-25T19:27:27.423Z,15.90
2018-04-25T19:29:55.094Z,15.80
2018-04-25T19:32:22.640Z,15.70
2018-04-25T19:34:50.221Z,15.70
2018-04-25T19:37:18.720Z,15.90
2018-04-25T19:39:46.351Z,15.90
2018-04-25T19:42:14.721Z,15.90
2018-04-25T19:44:43.258Z,15.90
2018-04-25T19:47:10.933Z,15.90
2018-04-25T19:49:38.498Z,15.90
2018-04-25T19:52:06.100Z,15.80
2018-04-25T19:54:33.704Z,15.80
2018-04-25T19:57:01.519Z,15.70
2018-04-25T19:59:29.890Z,15.80
2018-04-25T20:01:58.338Z,15.70
2018-04-25T20:04:25.933Z,15.70
2018-04-25T20:06:54.279Z,15.60
2018-04-25T20:09:21.901Z,15.60
2018-04-25T20:11:49.539Z,15.60
2018-04-25T20:14:17.214Z,15.70
2018-04-25T20:16:44.946Z,15.60
2018-04-25T20:19:13.370Z,15.70
2018-04-25T20:21:40.975Z,15.70
2018-04-25T20:24:08.578Z,15.70
2018-04-25T20:26:36.161Z,15.70
2018-04-25T20:29:03.763Z,15.60
2018-04-25T20:31:32.308Z,15.60
2018-04-25T20:33:59.899Z,18.20
2018-04-25T20:36:28.257Z,15.60
2018-04-25T20:38:55.854Z,15.60
2018-04-25T20:41:23.414Z,15.60
2018-04-25T20:43:50.988Z,15.60
2018-04-25T20:46:18.594Z,15.50
2018-04-25T20:48:46.185Z,15.60
2018-04-25T20:51:13.969Z,15.40
2018-04-25T20:53:41.556Z,15.40
2018-04-25T20:56:09.262Z,15.40
2018-04-25T20:58:36.882Z,15.30
2018-04-25T21:01:04.456Z,15.30
2018-04-25T21:03:32.165Z,15.30
2018-04-25T21:05:59.778Z,15.20
2018-04-25T21:08:27.486Z,15.20
2018-04-25T21:10:55.209Z,14.90
2018-04-25T21:13:23.577Z,14.50
2018-04-25T21:15:51.262Z,14.50
2018-04-25T21:18:19.606Z,14.50
2018-04-25T21:20:47.197Z,14.50
2018-04-25T21:23:14.788Z,14.50
2018-04-25T21:25:42.545Z,14.50
2018-04-25T21:28:10.113Z,14.40
2018-04-25T21:30:37.708Z,14.50
2018-04-25T21:33:05.506Z,14.30
2018-04-25T21:35:33.097Z,14.20
2018-04-25T21:38:00.682Z,14.10
2018-04-25T21:40:29.029Z,14.10
2018-04-25T21:42:56.900Z,14.10
2018-04-25T21:45:24.506Z,14.00
2018-04-25T21:47:52.852Z,14.00
2018-04-25T21:50:20.417Z,14.00
2018-04-25T21:52:48.003Z,14.00
2018-04-25T21:55:16.440Z,13.80
2018-04-25T21:57:44.052Z,13.80
2018-04-25T22:00:12.386Z,13.70
2018-04-25T22:02:39.965Z,13.70
2018-04-25T22:05:07.594Z,13.80
2018-04-25T22:07:35.193Z,13.80
2018-04-25T22:10:02.769Z,13.70
2018-04-25T22:12:30.362Z,13.70
2018-04-25T22:14:58.107Z,13.60
2018-04-25T22:17:25.692Z,13.60
2018-04-25T22:19:53.360Z,13.40
2018-04-25T22:22:21.023Z,13.30
2018-04-25T22:24:48.620Z,13.20
2018-04-25T22:27:16.954Z,12.60
2018-04-25T22:29:44.551Z,12.50
2018-04-25T22:32:12.883Z,12.50
2018-04-25T22:34:40.487Z,12.50
2018-04-25T22:37:08.869Z,12.30
2018-04-25T22:39:37.212Z,12.20
2018-04-25T22:42:04.794Z,12.20
2018-04-25T22:44:33.156Z,12.10
2018-04-25T22:47:00.713Z,12.10
2018-04-25T22:49:28.305Z,12.40
2018-04-25T22:51:55.878Z,12.50
2018-04-25T22:54:23.442Z,12.40
2018-04-25T22:56:51.141Z,12.20
2018-04-25T22:59:18.710Z,12.40
2018-04-25T23:01:47.241Z,12.50
2018-04-25T23:04:14.806Z,12.40
2018-04-25T23:06:42.514Z,12.50
2018-04-25T23:09:10.228Z,12.30
2018-04-25T23:11:37.821Z,12.40
2018-04-25T23:14:05.373Z,12.40
2018-04-25T23:16:32.965Z,12.40
2018-04-25T23:19:01.305Z,12.20
2018-04-25T23:21:28.997Z,12.20
2018-04-25T23:23:57.321Z,12.10
2018-04-25T23:26:24.911Z,12.10
2018-04-25T23:28:52.634Z,12.00
2018-04-25T23:31:20.220Z,12.10
2018-04-25T23:33:47.793Z,12.00
2018-04-25T23:36:15.354Z,12.00
2018-04-25T23:38:43.737Z,12.00
2018-04-25T23:41:11.508Z,12.00
2018-04-25T23:43:39.086Z,11.90
2018-04-25T23:46:07.417Z,12.00
2018-04-25T23:48:35.027Z,11.90
2018-04-25T23:51:02.701Z,11.90
2018-04-25T23:53:30.304Z,12.00
2018-04-25T23:55:58.035Z,12.00
2018-04-25T23:58:25.665Z,12.00
